sensor_id;sensor_type;location;lat;lon;timestamp;temperature;humidity
27803;DHT22;15182;48.174;11.562;2023-05-10T00:00:55;20.10;91.60
27803;DHT22;15182;48.174;11.562;2023-05-10T00:03:25;20.00;91.70
27803;DHT22;15182;48.174;11.562;2023-05-10T00:05:52;20.00;91.90
27803;DHT22;15182;48.174;11.562;2023-05-10T00:08:20;20.00;91.90
27803;DHT22;15182;48.174;11.562;2023-05-10T00:10:48;20.00;92.00
27803;DHT22;15182;48.174;11.562;2023-05-10T00:13:16;19.90;91.90
27803;DHT22;15182;48.174;11.562;2023-05-10T00:15:43;20.00;92.40
27803;DHT22;15182;48.174;11.562;2023-05-10T00:18:11;20.00;92.10
27803;DHT22;15182;48.174;11.562;2023-05-10T00:20:40;19.90;92.20
27803;DHT22;15182;48.174;11.562;2023-05-10T00:23:08;19.90;92.30
27803;DHT22;15182;48.174;11.562;2023-05-10T00:25:36;19.90;92.20
27803;DHT22;15182;48.174;11.562;2023-05-10T00:28:03;19.90;92.20
27803;DHT22;15182;48.174;11.562;2023-05-10T00:30:31;19.90;92.30
27803;DHT22;15182;48.174;11.562;2023-05-10T00:32:59;19.80;92.30
27803;DHT22;15182;48.174;11.562;2023-05-10T00:35:27;19.80;92.50
27803;DHT22;15182;48.174;11.562;2023-05-10T00:37:56;19.80;92.50
27803;DHT22;15182;48.174;11.562;2023-05-10T00:40:23;19.80;92.60
27803;DHT22;15182;48.174;11.562;2023-05-10T00:42:56;19.80;92.60
27803;DHT22;15182;48.174;11.562;2023-05-10T00:45:24;19.70;92.50
27803;DHT22;15182;48.174;11.562;2023-05-10T00:47:53;19.70;92.60
27803;DHT22;15182;48.174;11.562;2023-05-10T00:50:22;19.70;92.70
27803;DHT22;15182;48.174;11.562;2023-05-10T00:52:50;19.70;92.80
27803;DHT22;15182;48.174;11.562;2023-05-10T00:55:19;19.70;92.80
27803;DHT22;15182;48.174;11.562;2023-05-10T00:57:48;19.70;93.00
27803;DHT22;15182;48.174;11.562;2023-05-10T01:00:16;19.70;92.90
27803;DHT22;15182;48.174;11.562;2023-05-10T01:02:44;19.70;92.90
27803;DHT22;15182;48.174;11.562;2023-05-10T01:05:12;19.70;92.90
27803;DHT22;15182;48.174;11.562;2023-05-10T01:07:40;19.70;93.10
27803;DHT22;15182;48.174;11.562;2023-05-10T01:10:10;19.70;93.10
27803;DHT22;15182;48.174;11.562;2023-05-10T01:12:40;19.60;93.10
27803;DHT22;15182;48.174;11.562;2023-05-10T01:15:11;19.70;93.30
27803;DHT22;15182;48.174;11.562;2023-05-10T01:17:41;19.70;93.30
27803;DHT22;15182;48.174;11.562;2023-05-10T01:20:11;19.60;93.20
27803;DHT22;15182;48.174;11.562;2023-05-10T01:23:10;19.60;93.20
27803;DHT22;15182;48.174;11.562;2023-05-10T01:26:14;19.60;93.60
27803;DHT22;15182;48.174;11.562;2023-05-10T01:29:05;19.60;93.60
27803;DHT22;15182;48.174;11.562;2023-05-10T01:32:05;19.50;93.60
27803;DHT22;15182;48.174;11.562;2023-05-10T01:34:56;19.50;93.60
27803;DHT22;15182;48.174;11.562;2023-05-10T01:37:33;19.50;93.60
27803;DHT22;15182;48.174;11.562;2023-05-10T01:40:11;19.40;93.60
27803;DHT22;15182;48.174;11.562;2023-05-10T01:42:47;19.40;93.60
27803;DHT22;15182;48.174;11.562;2023-05-10T01:45:24;19.40;93.60
27803;DHT22;15182;48.174;11.562;2023-05-10T01:48:02;19.40;93.70
27803;DHT22;15182;48.174;11.562;2023-05-10T01:50:35;19.30;93.70
27803;DHT22;15182;48.174;11.562;2023-05-10T01:53:07;19.40;93.80
27803;DHT22;15182;48.174;11.562;2023-05-10T01:55:43;19.40;93.80
27803;DHT22;15182;48.174;11.562;2023-05-10T01:58:27;19.30;94.30
27803;DHT22;15182;48.174;11.562;2023-05-10T02:00:56;19.30;93.90
27803;DHT22;15182;48.174;11.562;2023-05-10T02:03:28;19.30;93.90
27803;DHT22;15182;48.174;11.562;2023-05-10T02:05:57;19.30;94.00
27803;DHT22;15182;48.174;11.562;2023-05-10T02:08:26;19.20;93.90
27803;DHT22;15182;48.174;11.562;2023-05-10T02:10:55;19.20;94.00
27803;DHT22;15182;48.174;11.562;2023-05-10T02:13:24;19.20;94.10
27803;DHT22;15182;48.174;11.562;2023-05-10T02:15:54;19.20;94.00
27803;DHT22;15182;48.174;11.562;2023-05-10T02:18:24;19.20;94.20
27803;DHT22;15182;48.174;11.562;2023-05-10T02:20:56;19.20;94.30
27803;DHT22;15182;48.174;11.562;2023-05-10T02:23:24;19.20;94.20
27803;DHT22;15182;48.174;11.562;2023-05-10T02:25:54;19.20;94.30
27803;DHT22;15182;48.174;11.562;2023-05-10T02:28:23;19.20;94.40
27803;DHT22;15182;48.174;11.562;2023-05-10T02:30:53;19.20;94.40
27803;DHT22;15182;48.174;11.562;2023-05-10T02:33:22;19.20;94.30
27803;DHT22;15182;48.174;11.562;2023-05-10T02:35:52;19.20;94.30
27803;DHT22;15182;48.174;11.562;2023-05-10T02:38:20;19.20;94.40
27803;DHT22;15182;48.174;11.562;2023-05-10T02:40:50;19.20;94.40
27803;DHT22;15182;48.174;11.562;2023-05-10T02:43:18;19.20;94.50
27803;DHT22;15182;48.174;11.562;2023-05-10T02:45:48;19.10;94.50
27803;DHT22;15182;48.174;11.562;2023-05-10T02:48:16;19.10;94.50
27803;DHT22;15182;48.174;11.562;2023-05-10T02:50:45;19.10;94.50
27803;DHT22;15182;48.174;11.562;2023-05-10T02:53:23;19.10;94.60
27803;DHT22;15182;48.174;11.562;2023-05-10T02:55:58;19.10;94.70
27803;DHT22;15182;48.174;11.562;2023-05-10T02:58:30;19.00;94.60
27803;DHT22;15182;48.174;11.562;2023-05-10T03:00:57;19.00;94.60
27803;DHT22;15182;48.174;11.562;2023-05-10T03:03:25;19.00;94.70
27803;DHT22;15182;48.174;11.562;2023-05-10T03:05:53;19.00;94.80
27803;DHT22;15182;48.174;11.562;2023-05-10T03:08:23;19.00;94.90
27803;DHT22;15182;48.174;11.562;2023-05-10T03:10:59;19.00;95.00
27803;DHT22;15182;48.174;11.562;2023-05-10T03:13:42;19.00;95.10
27803;DHT22;15182;48.174;11.562;2023-05-10T03:16:27;19.00;95.20
27803;DHT22;15182;48.174;11.562;2023-05-10T03:19:02;18.90;95.00
27803;DHT22;15182;48.174;11.562;2023-05-10T03:21:37;18.90;95.20
27803;DHT22;15182;48.174;11.562;2023-05-10T03:24:09;18.90;95.20
27803;DHT22;15182;48.174;11.562;2023-05-10T03:26:38;18.90;95.40
27803;DHT22;15182;48.174;11.562;2023-05-10T03:29:13;18.80;95.30
27803;DHT22;15182;48.174;11.562;2023-05-10T03:31:41;18.80;95.30
27803;DHT22;15182;48.174;11.562;2023-05-10T03:34:09;18.80;95.30
27803;DHT22;15182;48.174;11.562;2023-05-10T03:36:37;18.80;95.40
27803;DHT22;15182;48.174;11.562;2023-05-10T03:39:06;18.80;95.50
27803;DHT22;15182;48.174;11.562;2023-05-10T03:41:35;18.80;95.50
27803;DHT22;15182;48.174;11.562;2023-05-10T03:44:03;18.80;95.60
27803;DHT22;15182;48.174;11.562;2023-05-10T03:46:31;18.70;95.60
27803;DHT22;15182;48.174;11.562;2023-05-10T03:49:04;18.70;95.70
27803;DHT22;15182;48.174;11.562;2023-05-10T03:51:32;18.70;95.70
27803;DHT22;15182;48.174;11.562;2023-05-10T03:54:00;18.70;95.80
27803;DHT22;15182;48.174;11.562;2023-05-10T03:56:29;18.70;95.90
27803;DHT22;15182;48.174;11.562;2023-05-10T03:58:57;18.70;96.00
27803;DHT22;15182;48.174;11.562;2023-05-10T04:01:24;18.70;96.00
27803;DHT22;15182;48.174;11.562;2023-05-10T04:03:52;18.70;96.10
27803;DHT22;15182;48.174;11.562;2023-05-10T04:06:20;18.70;96.10
27803;DHT22;15182;48.174;11.562;2023-05-10T04:08:48;18.70;96.10
27803;DHT22;15182;48.174;11.562;2023-05-10T04:11:16;18.70;96.20
27803;DHT22;15182;48.174;11.562;2023-05-10T04:13:45;18.70;96.20
27803;DHT22;15182;48.174;11.562;2023-05-10T04:16:12;18.70;96.30
27803;DHT22;15182;48.174;11.562;2023-05-10T04:18:40;18.70;96.30
27803;DHT22;15182;48.174;11.562;2023-05-10T04:21:11;18.70;96.40
27803;DHT22;15182;48.174;11.562;2023-05-10T04:23:40;18.70;96.60
27803;DHT22;15182;48.174;11.562;2023-05-10T04:26:07;18.70;96.40
27803;DHT22;15182;48.174;11.562;2023-05-10T04:28:35;18.70;96.50
27803;DHT22;15182;48.174;11.562;2023-05-10T04:31:05;18.70;96.60
27803;DHT22;15182;48.174;11.562;2023-05-10T04:33:33;18.60;96.70
27803;DHT22;15182;48.174;11.562;2023-05-10T04:36:01;18.60;96.70
27803;DHT22;15182;48.174;11.562;2023-05-10T04:38:30;18.60;96.70
27803;DHT22;15182;48.174;11.562;2023-05-10T04:41:04;18.60;96.80
27803;DHT22;15182;48.174;11.562;2023-05-10T04:43:32;18.60;97.10
27803;DHT22;15182;48.174;11.562;2023-05-10T04:46:00;18.60;97.00
27803;DHT22;15182;48.174;11.562;2023-05-10T04:48:29;18.60;97.10
27803;DHT22;15182;48.174;11.562;2023-05-10T04:50:57;18.60;97.20
27803;DHT22;15182;48.174;11.562;2023-05-10T04:53:25;18.60;97.50
27803;DHT22;15182;48.174;11.562;2023-05-10T04:55:52;18.60;97.30
27803;DHT22;15182;48.174;11.562;2023-05-10T04:58:20;18.50;97.30
27803;DHT22;15182;48.174;11.562;2023-05-10T05:00:48;18.50;97.20
27803;DHT22;15182;48.174;11.562;2023-05-10T05:03:16;18.50;97.30
27803;DHT22;15182;48.174;11.562;2023-05-10T05:05:45;18.50;97.30
27803;DHT22;15182;48.174;11.562;2023-05-10T05:08:12;18.50;97.40
27803;DHT22;15182;48.174;11.562;2023-05-10T05:10:40;18.40;97.30
27803;DHT22;15182;48.174;11.562;2023-05-10T05:13:08;18.40;97.40
27803;DHT22;15182;48.174;11.562;2023-05-10T05:15:35;18.40;97.30
27803;DHT22;15182;48.174;11.562;2023-05-10T05:18:03;18.30;97.30
27803;DHT22;15182;48.174;11.562;2023-05-10T05:20:32;18.30;97.50
27803;DHT22;15182;48.174;11.562;2023-05-10T05:23:01;18.30;97.60
27803;DHT22;15182;48.174;11.562;2023-05-10T05:25:29;18.30;97.80
27803;DHT22;15182;48.174;11.562;2023-05-10T05:27:57;18.30;97.60
27803;DHT22;15182;48.174;11.562;2023-05-10T05:30:24;18.20;97.40
27803;DHT22;15182;48.174;11.562;2023-05-10T05:32:52;18.20;97.40
27803;DHT22;15182;48.174;11.562;2023-05-10T05:35:20;18.20;97.30
27803;DHT22;15182;48.174;11.562;2023-05-10T05:37:47;18.20;97.30
27803;DHT22;15182;48.174;11.562;2023-05-10T05:40:16;18.20;97.40
27803;DHT22;15182;48.174;11.562;2023-05-10T05:42:44;18.10;97.40
27803;DHT22;15182;48.174;11.562;2023-05-10T05:45:12;18.10;97.30
27803;DHT22;15182;48.174;11.562;2023-05-10T05:47:40;18.10;97.30
27803;DHT22;15182;48.174;11.562;2023-05-10T05:50:09;18.10;97.30
27803;DHT22;15182;48.174;11.562;2023-05-10T05:52:37;18.10;97.40
27803;DHT22;15182;48.174;11.562;2023-05-10T05:55:05;18.10;97.50
27803;DHT22;15182;48.174;11.562;2023-05-10T05:57:34;18.10;97.50
27803;DHT22;15182;48.174;11.562;2023-05-10T06:00:02;18.10;97.60
27803;DHT22;15182;48.174;11.562;2023-05-10T06:02:38;18.10;97.50
27803;DHT22;15182;48.174;11.562;2023-05-10T06:05:07;18.10;97.60
27803;DHT22;15182;48.174;11.562;2023-05-10T06:07:35;18.10;97.60
27803;DHT22;15182;48.174;11.562;2023-05-10T06:10:04;18.10;97.60
27803;DHT22;15182;48.174;11.562;2023-05-10T06:12:34;18.10;97.60
27803;DHT22;15182;48.174;11.562;2023-05-10T06:15:02;18.10;97.80
27803;DHT22;15182;48.174;11.562;2023-05-10T06:17:30;18.10;97.80
27803;DHT22;15182;48.174;11.562;2023-05-10T06:19:58;18.20;97.90
27803;DHT22;15182;48.174;11.562;2023-05-10T06:22:25;18.10;98.00
27803;DHT22;15182;48.174;11.562;2023-05-10T06:24:53;18.20;98.00
27803;DHT22;15182;48.174;11.562;2023-05-10T06:27:21;18.20;98.00
27803;DHT22;15182;48.174;11.562;2023-05-10T06:29:50;18.20;98.40
27803;DHT22;15182;48.174;11.562;2023-05-10T06:32:18;18.30;98.40
27803;DHT22;15182;48.174;11.562;2023-05-10T06:34:46;18.30;98.40
27803;DHT22;15182;48.174;11.562;2023-05-10T06:37:13;18.30;98.40
27803;DHT22;15182;48.174;11.562;2023-05-10T06:39:41;18.40;98.30
27803;DHT22;15182;48.174;11.562;2023-05-10T06:42:09;18.40;98.20
27803;DHT22;15182;48.174;11.562;2023-05-10T06:44:36;18.40;98.00
27803;DHT22;15182;48.174;11.562;2023-05-10T06:47:05;18.40;98.00
27803;DHT22;15182;48.174;11.562;2023-05-10T06:49:33;18.50;98.20
27803;DHT22;15182;48.174;11.562;2023-05-10T06:52:01;18.50;98.20
27803;DHT22;15182;48.174;11.562;2023-05-10T06:54:28;18.50;98.20
27803;DHT22;15182;48.174;11.562;2023-05-10T06:56:56;18.50;98.20
27803;DHT22;15182;48.174;11.562;2023-05-10T06:59:24;18.50;98.10
27803;DHT22;15182;48.174;11.562;2023-05-10T07:01:51;18.50;98.10
27803;DHT22;15182;48.174;11.562;2023-05-10T07:04:21;18.50;98.00
27803;DHT22;15182;48.174;11.562;2023-05-10T07:06:49;18.50;98.00
27803;DHT22;15182;48.174;11.562;2023-05-10T07:09:16;18.50;98.10
27803;DHT22;15182;48.174;11.562;2023-05-10T07:11:44;18.50;98.20
27803;DHT22;15182;48.174;11.562;2023-05-10T07:14:12;18.50;98.20
27803;DHT22;15182;48.174;11.562;2023-05-10T07:16:39;18.50;98.20
27803;DHT22;15182;48.174;11.562;2023-05-10T07:19:07;18.50;98.20
27803;DHT22;15182;48.174;11.562;2023-05-10T07:21:36;18.50;98.20
27803;DHT22;15182;48.174;11.562;2023-05-10T07:24:06;18.60;98.50
27803;DHT22;15182;48.174;11.562;2023-05-10T07:26:34;18.60;98.70
27803;DHT22;15182;48.174;11.562;2023-05-10T07:29:02;18.70;98.70
27803;DHT22;15182;48.174;11.562;2023-05-10T07:31:29;18.70;98.40
27803;DHT22;15182;48.174;11.562;2023-05-10T07:33:57;18.80;98.30
27803;DHT22;15182;48.174;11.562;2023-05-10T07:36:25;18.80;98.00
27803;DHT22;15182;48.174;11.562;2023-05-10T07:38:54;18.80;98.10
27803;DHT22;15182;48.174;11.562;2023-05-10T07:41:22;18.80;97.90
27803;DHT22;15182;48.174;11.562;2023-05-10T07:43:50;18.90;97.90
27803;DHT22;15182;48.174;11.562;2023-05-10T07:46:18;18.90;98.00
27803;DHT22;15182;48.174;11.562;2023-05-10T07:48:46;19.00;97.90
27803;DHT22;15182;48.174;11.562;2023-05-10T07:51:14;19.00;97.90
27803;DHT22;15182;48.174;11.562;2023-05-10T07:53:41;19.00;97.60
27803;DHT22;15182;48.174;11.562;2023-05-10T07:56:25;19.00;97.70
27803;DHT22;15182;48.174;11.562;2023-05-10T07:58:56;19.00;98.00
27803;DHT22;15182;48.174;11.562;2023-05-10T08:01:24;19.00;97.90
27803;DHT22;15182;48.174;11.562;2023-05-10T08:03:52;19.10;97.80
27803;DHT22;15182;48.174;11.562;2023-05-10T08:06:20;19.20;97.90
27803;DHT22;15182;48.174;11.562;2023-05-10T08:08:48;19.20;97.20
27803;DHT22;15182;48.174;11.562;2023-05-10T08:11:16;19.30;97.30
27803;DHT22;15182;48.174;11.562;2023-05-10T08:13:46;19.30;97.20
27803;DHT22;15182;48.174;11.562;2023-05-10T08:16:15;19.30;97.10
27803;DHT22;15182;48.174;11.562;2023-05-10T08:18:43;19.30;97.00
27803;DHT22;15182;48.174;11.562;2023-05-10T08:21:12;19.40;97.00
27803;DHT22;15182;48.174;11.562;2023-05-10T08:23:40;19.40;96.90
27803;DHT22;15182;48.174;11.562;2023-05-10T08:26:09;19.50;96.60
27803;DHT22;15182;48.174;11.562;2023-05-10T08:28:37;19.50;96.30
27803;DHT22;15182;48.174;11.562;2023-05-10T08:31:07;19.50;96.20
27803;DHT22;15182;48.174;11.562;2023-05-10T08:33:35;19.60;96.10
27803;DHT22;15182;48.174;11.562;2023-05-10T08:36:03;19.60;96.10
27803;DHT22;15182;48.174;11.562;2023-05-10T08:38:31;19.60;96.10
27803;DHT22;15182;48.174;11.562;2023-05-10T08:40:58;19.70;95.80
27803;DHT22;15182;48.174;11.562;2023-05-10T08:43:27;19.70;95.50
27803;DHT22;15182;48.174;11.562;2023-05-10T08:45:56;19.70;95.30
27803;DHT22;15182;48.174;11.562;2023-05-10T08:48:29;19.60;95.50
27803;DHT22;15182;48.174;11.562;2023-05-10T08:50:58;19.60;95.00
27803;DHT22;15182;48.174;11.562;2023-05-10T08:53:30;19.60;95.00
27803;DHT22;15182;48.174;11.562;2023-05-10T08:55:58;19.50;95.00
27803;DHT22;15182;48.174;11.562;2023-05-10T08:58:26;19.50;95.00
27803;DHT22;15182;48.174;11.562;2023-05-10T09:00:54;19.50;95.00
27803;DHT22;15182;48.174;11.562;2023-05-10T09:03:23;19.40;95.00
27803;DHT22;15182;48.174;11.562;2023-05-10T09:05:52;19.40;95.20
27803;DHT22;15182;48.174;11.562;2023-05-10T09:08:23;19.40;95.20
27803;DHT22;15182;48.174;11.562;2023-05-10T09:10:53;19.40;95.20
27803;DHT22;15182;48.174;11.562;2023-05-10T09:13:21;19.40;95.40
27803;DHT22;15182;48.174;11.562;2023-05-10T09:15:51;19.50;96.00
27803;DHT22;15182;48.174;11.562;2023-05-10T09:18:19;19.60;95.70
27803;DHT22;15182;48.174;11.562;2023-05-10T09:20:47;19.60;95.50
27803;DHT22;15182;48.174;11.562;2023-05-10T09:23:17;19.70;95.40
27803;DHT22;15182;48.174;11.562;2023-05-10T09:25:44;19.80;95.20
27803;DHT22;15182;48.174;11.562;2023-05-10T09:28:12;19.90;95.10
27803;DHT22;15182;48.174;11.562;2023-05-10T09:30:40;19.90;94.80
27803;DHT22;15182;48.174;11.562;2023-05-10T09:33:09;19.90;94.70
27803;DHT22;15182;48.174;11.562;2023-05-10T09:35:36;19.90;95.00
27803;DHT22;15182;48.174;11.562;2023-05-10T09:38:06;20.00;94.80
27803;DHT22;15182;48.174;11.562;2023-05-10T09:40:36;20.10;94.50
27803;DHT22;15182;48.174;11.562;2023-05-10T09:43:06;20.10;94.30
27803;DHT22;15182;48.174;11.562;2023-05-10T09:45:35;20.10;93.90
27803;DHT22;15182;48.174;11.562;2023-05-10T09:48:04;20.20;93.90
27803;DHT22;15182;48.174;11.562;2023-05-10T09:50:32;20.20;93.90
27803;DHT22;15182;48.174;11.562;2023-05-10T09:53:01;20.20;94.10
27803;DHT22;15182;48.174;11.562;2023-05-10T09:55:40;20.20;94.10
27803;DHT22;15182;48.174;11.562;2023-05-10T09:58:11;20.30;93.80
27803;DHT22;15182;48.174;11.562;2023-05-10T10:00:40;20.30;94.10
27803;DHT22;15182;48.174;11.562;2023-05-10T10:03:12;20.40;93.50
27803;DHT22;15182;48.174;11.562;2023-05-10T10:05:42;20.50;93.40
27803;DHT22;15182;48.174;11.562;2023-05-10T10:08:11;20.60;93.30
27803;DHT22;15182;48.174;11.562;2023-05-10T10:10:41;20.60;93.10
27803;DHT22;15182;48.174;11.562;2023-05-10T10:13:10;20.70;93.10
27803;DHT22;15182;48.174;11.562;2023-05-10T10:15:38;20.80;93.10
27803;DHT22;15182;48.174;11.562;2023-05-10T10:18:07;20.90;92.80
27803;DHT22;15182;48.174;11.562;2023-05-10T10:20:40;21.00;92.50
27803;DHT22;15182;48.174;11.562;2023-05-10T10:23:08;21.10;92.20
27803;DHT22;15182;48.174;11.562;2023-05-10T10:25:36;21.10;92.00
27803;DHT22;15182;48.174;11.562;2023-05-10T10:28:16;21.10;91.90
27803;DHT22;15182;48.174;11.562;2023-05-10T10:30:51;21.00;91.40
27803;DHT22;15182;48.174;11.562;2023-05-10T10:33:36;21.00;91.50
27803;DHT22;15182;48.174;11.562;2023-05-10T10:36:08;21.00;91.30
27803;DHT22;15182;48.174;11.562;2023-05-10T10:38:37;21.00;91.70
27803;DHT22;15182;48.174;11.562;2023-05-10T10:41:10;21.00;91.70
27803;DHT22;15182;48.174;11.562;2023-05-10T10:43:40;21.00;91.70
27803;DHT22;15182;48.174;11.562;2023-05-10T10:46:12;21.10;91.70
27803;DHT22;15182;48.174;11.562;2023-05-10T10:48:41;21.10;91.50
27803;DHT22;15182;48.174;11.562;2023-05-10T10:51:13;21.20;91.60
27803;DHT22;15182;48.174;11.562;2023-05-10T10:53:41;21.10;91.40
27803;DHT22;15182;48.174;11.562;2023-05-10T10:56:11;21.10;91.40
27803;DHT22;15182;48.174;11.562;2023-05-10T10:58:49;21.10;90.90
27803;DHT22;15182;48.174;11.562;2023-05-10T11:01:19;21.10;90.70
27803;DHT22;15182;48.174;11.562;2023-05-10T11:04:17;21.10;90.90
27803;DHT22;15182;48.174;11.562;2023-05-10T11:06:45;21.00;90.70
27803;DHT22;15182;48.174;11.562;2023-05-10T11:09:13;21.00;90.90
27803;DHT22;15182;48.174;11.562;2023-05-10T11:11:49;21.00;90.80
27803;DHT22;15182;48.174;11.562;2023-05-10T11:14:21;21.00;90.70
27803;DHT22;15182;48.174;11.562;2023-05-10T11:16:50;21.00;90.70
27803;DHT22;15182;48.174;11.562;2023-05-10T11:19:18;21.00;90.80
27803;DHT22;15182;48.174;11.562;2023-05-10T11:21:48;21.00;90.70
27803;DHT22;15182;48.174;11.562;2023-05-10T11:24:17;21.00;90.50
27803;DHT22;15182;48.174;11.562;2023-05-10T11:26:50;21.00;90.80
27803;DHT22;15182;48.174;11.562;2023-05-10T11:29:18;21.00;90.90
27803;DHT22;15182;48.174;11.562;2023-05-10T11:31:49;21.00;90.80
27803;DHT22;15182;48.174;11.562;2023-05-10T11:34:25;21.00;90.80
27803;DHT22;15182;48.174;11.562;2023-05-10T11:36:54;20.90;90.90
27803;DHT22;15182;48.174;11.562;2023-05-10T11:39:26;20.80;91.10
27803;DHT22;15182;48.174;11.562;2023-05-10T11:41:55;20.70;91.30
27803;DHT22;15182;48.174;11.562;2023-05-10T11:44:23;20.60;91.40
27803;DHT22;15182;48.174;11.562;2023-05-10T11:46:52;20.60;91.60
27803;DHT22;15182;48.174;11.562;2023-05-10T11:49:20;20.50;91.80
27803;DHT22;15182;48.174;11.562;2023-05-10T11:51:50;20.40;92.00
27803;DHT22;15182;48.174;11.562;2023-05-10T11:54:18;20.30;92.10
27803;DHT22;15182;48.174;11.562;2023-05-10T11:56:45;20.30;92.30
27803;DHT22;15182;48.174;11.562;2023-05-10T11:59:14;20.20;92.40
27803;DHT22;15182;48.174;11.562;2023-05-10T12:01:42;20.10;92.40
27803;DHT22;15182;48.174;11.562;2023-05-10T12:04:11;20.00;92.30
27803;DHT22;15182;48.174;11.562;2023-05-10T12:06:40;19.90;92.40
27803;DHT22;15182;48.174;11.562;2023-05-10T12:09:08;19.80;92.50
27803;DHT22;15182;48.174;11.562;2023-05-10T12:11:37;19.70;92.70
27803;DHT22;15182;48.174;11.562;2023-05-10T12:14:08;19.60;92.80
27803;DHT22;15182;48.174;11.562;2023-05-10T12:16:36;19.50;93.10
27803;DHT22;15182;48.174;11.562;2023-05-10T12:19:03;19.50;93.10
27803;DHT22;15182;48.174;11.562;2023-05-10T12:21:33;19.40;93.20
27803;DHT22;15182;48.174;11.562;2023-05-10T12:24:02;19.30;93.80
27803;DHT22;15182;48.174;11.562;2023-05-10T12:26:31;19.20;94.00
27803;DHT22;15182;48.174;11.562;2023-05-10T12:29:12;19.20;93.90
27803;DHT22;15182;48.174;11.562;2023-05-10T12:31:55;19.10;94.40
27803;DHT22;15182;48.174;11.562;2023-05-10T12:34:29;19.10;94.50
27803;DHT22;15182;48.174;11.562;2023-05-10T12:36:59;19.10;94.70
27803;DHT22;15182;48.174;11.562;2023-05-10T12:39:38;19.00;94.70
27803;DHT22;15182;48.174;11.562;2023-05-10T12:42:08;19.00;95.00
27803;DHT22;15182;48.174;11.562;2023-05-10T12:44:36;19.00;94.90
27803;DHT22;15182;48.174;11.562;2023-05-10T12:47:04;19.00;95.10
27803;DHT22;15182;48.174;11.562;2023-05-10T12:49:32;19.00;95.30
27803;DHT22;15182;48.174;11.562;2023-05-10T12:52:01;19.00;95.40
27803;DHT22;15182;48.174;11.562;2023-05-10T12:54:29;19.00;95.40
27803;DHT22;15182;48.174;11.562;2023-05-10T12:56:56;19.00;95.30
27803;DHT22;15182;48.174;11.562;2023-05-10T12:59:24;19.00;95.30
27803;DHT22;15182;48.174;11.562;2023-05-10T13:01:52;19.00;95.30
27803;DHT22;15182;48.174;11.562;2023-05-10T13:04:19;18.90;95.30
27803;DHT22;15182;48.174;11.562;2023-05-10T13:06:47;18.90;95.50
27803;DHT22;15182;48.174;11.562;2023-05-10T13:09:16;19.00;95.50
27803;DHT22;15182;48.174;11.562;2023-05-10T13:11:44;19.00;95.50
27803;DHT22;15182;48.174;11.562;2023-05-10T13:14:13;19.00;95.50
27803;DHT22;15182;48.174;11.562;2023-05-10T13:16:41;19.00;95.60
27803;DHT22;15182;48.174;11.562;2023-05-10T13:19:08;19.00;95.60
27803;DHT22;15182;48.174;11.562;2023-05-10T13:21:37;19.00;95.70
27803;DHT22;15182;48.174;11.562;2023-05-10T13:24:07;19.00;95.50
27803;DHT22;15182;48.174;11.562;2023-05-10T13:26:36;19.10;95.40
27803;DHT22;15182;48.174;11.562;2023-05-10T13:29:04;19.10;95.50
27803;DHT22;15182;48.174;11.562;2023-05-10T13:31:33;19.10;95.40
27803;DHT22;15182;48.174;11.562;2023-05-10T13:34:01;19.10;95.60
27803;DHT22;15182;48.174;11.562;2023-05-10T13:36:29;19.10;95.80
27803;DHT22;15182;48.174;11.562;2023-05-10T13:38:56;19.10;95.90
27803;DHT22;15182;48.174;11.562;2023-05-10T13:41:24;19.10;95.90
27803;DHT22;15182;48.174;11.562;2023-05-10T13:43:53;19.10;96.00
27803;DHT22;15182;48.174;11.562;2023-05-10T13:46:21;19.10;96.10
27803;DHT22;15182;48.174;11.562;2023-05-10T13:48:49;19.00;96.10
27803;DHT22;15182;48.174;11.562;2023-05-10T13:51:16;19.00;96.20
27803;DHT22;15182;48.174;11.562;2023-05-10T13:53:44;19.00;96.30
27803;DHT22;15182;48.174;11.562;2023-05-10T13:56:13;19.00;96.30
27803;DHT22;15182;48.174;11.562;2023-05-10T13:58:41;19.00;96.40
27803;DHT22;15182;48.174;11.562;2023-05-10T14:01:10;18.90;96.40
27803;DHT22;15182;48.174;11.562;2023-05-10T14:03:38;18.90;96.60
27803;DHT22;15182;48.174;11.562;2023-05-10T14:06:06;18.90;96.50
27803;DHT22;15182;48.174;11.562;2023-05-10T14:08:35;18.90;96.50
27803;DHT22;15182;48.174;11.562;2023-05-10T14:11:03;18.90;96.50
27803;DHT22;15182;48.174;11.562;2023-05-10T14:13:31;18.80;96.50
27803;DHT22;15182;48.174;11.562;2023-05-10T14:15:59;18.80;96.60
27803;DHT22;15182;48.174;11.562;2023-05-10T14:18:28;18.80;96.60
27803;DHT22;15182;48.174;11.562;2023-05-10T14:20:56;18.70;96.70
27803;DHT22;15182;48.174;11.562;2023-05-10T14:23:23;18.70;96.70
27803;DHT22;15182;48.174;11.562;2023-05-10T14:25:52;18.60;96.70
27803;DHT22;15182;48.174;11.562;2023-05-10T14:28:20;18.60;96.90
27803;DHT22;15182;48.174;11.562;2023-05-10T14:30:48;18.60;96.90
27803;DHT22;15182;48.174;11.562;2023-05-10T14:33:16;18.50;96.90
27803;DHT22;15182;48.174;11.562;2023-05-10T14:35:46;18.50;97.00
27803;DHT22;15182;48.174;11.562;2023-05-10T14:38:14;18.40;97.00
27803;DHT22;15182;48.174;11.562;2023-05-10T14:40:42;18.40;97.00
27803;DHT22;15182;48.174;11.562;2023-05-10T14:43:09;18.40;97.10
27803;DHT22;15182;48.174;11.562;2023-05-10T14:45:37;18.30;97.10
27803;DHT22;15182;48.174;11.562;2023-05-10T14:48:05;18.30;97.20
27803;DHT22;15182;48.174;11.562;2023-05-10T14:50:37;18.30;97.20
27803;DHT22;15182;48.174;11.562;2023-05-10T14:53:07;18.20;97.30
27803;DHT22;15182;48.174;11.562;2023-05-10T14:55:35;18.20;97.50
27803;DHT22;15182;48.174;11.562;2023-05-10T14:58:03;18.20;97.40
27803;DHT22;15182;48.174;11.562;2023-05-10T15:00:30;18.10;97.50
27803;DHT22;15182;48.174;11.562;2023-05-10T15:02:58;18.10;97.50
27803;DHT22;15182;48.174;11.562;2023-05-10T15:05:26;18.10;97.60
27803;DHT22;15182;48.174;11.562;2023-05-10T15:07:54;18.10;97.70
27803;DHT22;15182;48.174;11.562;2023-05-10T15:10:23;18.00;97.60
27803;DHT22;15182;48.174;11.562;2023-05-10T15:12:51;18.00;97.80
27803;DHT22;15182;48.174;11.562;2023-05-10T15:15:19;18.00;97.60
27803;DHT22;15182;48.174;11.562;2023-05-10T15:17:47;18.00;97.70
27803;DHT22;15182;48.174;11.562;2023-05-10T15:20:15;17.90;97.80
27803;DHT22;15182;48.174;11.562;2023-05-10T15:22:43;17.90;97.90
27803;DHT22;15182;48.174;11.562;2023-05-10T15:25:11;17.90;97.90
27803;DHT22;15182;48.174;11.562;2023-05-10T15:27:40;17.90;98.00
27803;DHT22;15182;48.174;11.562;2023-05-10T15:30:10;17.80;98.10